Time;durP1;ratioP1;P1;durP2;ratioP2;P2;SDS_P1;SDS_P2;PMS_P1;PMS_P2;Temp;Humidity;BMP_temperature;BMP_pressure;BME280_temperature;BME280_humidity;BME280_pressure;Samples;Min_cycle;Max_cycle;Signal;HPM_P1;HPM_P2
2022/06/16 00:01:36;;;;;;;9.25;3.75;;;17.80;99.90;;;;;;5078288;28;20039;-61
2022/06/16 00:04:02;;;;;;;7.93;3.55;;;17.90;99.90;;;;;;5085272;28;20075;-61
2022/06/16 00:06:28;;;;;;;6.65;3.80;;;17.80;99.90;;;;;;5079108;28;20103;-62
2022/06/16 00:08:53;;;;;;;8.30;4.07;;;17.80;99.90;;;;;;5079553;28;20490;-61
2022/06/16 00:11:19;;;;;;;6.90;3.40;;;17.80;99.90;;;;;;5084811;28;20028;-61
2022/06/16 00:13:47;;;;;;;7.38;3.95;;;17.80;99.90;;;;;;5088632;28;20024;-62
2022/06/16 00:16:13;;;;;;;6.60;3.30;;;17.70;99.90;;;;;;5079354;28;20025;-60
2022/06/16 00:18:40;;;;;;;10.65;3.83;;;17.70;99.90;;;;;;5089362;28;20032;-61
2022/06/16 00:21:06;;;;;;;13.25;3.97;;;17.70;99.90;;;;;;5082586;28;20024;-60
2022/06/16 00:23:33;;;;;;;5.15;3.33;;;17.60;99.90;;;;;;5091445;28;20085;-61
2022/06/16 00:25:58;;;;;;;7.75;3.80;;;17.50;99.90;;;;;;5088135;28;20110;-61
2022/06/16 00:28:24;;;;;;;4.80;3.22;;;17.50;99.90;;;;;;5083890;28;20038;-60
2022/06/16 00:30:50;;;;;;;9.80;3.83;;;17.50;99.90;;;;;;5086511;28;20064;-61
2022/06/16 00:33:16;;;;;;;6.90;3.40;;;17.40;99.90;;;;;;5088667;28;20027;-59
2022/06/16 00:35:41;;;;;;;9.40;3.70;;;17.60;99.90;;;;;;5074612;28;20032;-61
2022/06/16 00:38:07;;;;;;;8.90;3.75;;;17.60;99.90;;;;;;5084297;28;20034;-61
2022/06/16 00:40:33;;;;;;;7.35;3.40;;;17.40;99.90;;;;;;5079701;28;20086;-61
2022/06/16 00:42:59;;;;;;;8.65;3.90;;;17.50;99.90;;;;;;5090857;28;20417;-61
2022/06/16 00:45:46;;;;;;;6.25;3.47;;;17.40;99.90;;;;;;5082642;28;20028;-61
2022/06/16 00:48:50;;;;;;;10.02;3.90;;;17.50;99.90;;;;;;5083876;28;20024;-61
2022/06/16 00:51:27;;;;;;;5.15;3.30;;;17.40;99.90;;;;;;5046818;28;20039;-62
2022/06/16 00:53:58;;;;;;;6.75;3.30;;;17.30;99.90;;;;;;5085507;28;20028;-61
2022/06/16 00:56:23;;;;;;;8.93;3.40;;;17.20;99.90;;;;;;5081775;28;20451;-60
2022/06/16 00:58:54;;;;;;;15.02;3.70;;;17.20;99.90;;;;;;5083815;28;20032;-62
2022/06/16 01:01:21;;;;;;;9.32;3.75;;;17.30;99.90;;;;;;5082316;28;20035;-61
2022/06/16 01:06:32;;;;;;;9.73;3.58;;;17.30;99.90;;;;;;5084652;28;20088;-61
2022/06/16 01:09:15;;;;;;;7.07;3.53;;;17.30;99.90;;;;;;5085518;28;20050;-61
2022/06/16 01:15:36;;;;;;;7.22;3.05;;;17.30;99.90;;;;;;5082831;28;20115;-60
2022/06/16 01:18:15;;;;;;;8.43;3.07;;;17.10;99.90;;;;;;5081501;28;20028;-62
2022/06/16 01:20:55;;;;;;;10.02;3.03;;;17.00;99.90;;;;;;5079405;28;20059;-60
2022/06/16 01:23:55;;;;;;;7.93;2.90;;;17.00;99.90;;;;;;5077033;28;20523;-62
2022/06/16 01:26:37;;;;;;;7.50;3.42;;;16.90;99.90;;;;;;5076186;28;20032;-60
2022/06/16 01:29:27;;;;;;;7.68;3.25;;;16.90;99.90;;;;;;5077714;28;20046;-61
2022/06/16 01:32:09;;;;;;;6.97;3.00;;;17.00;99.90;;;;;;5080842;28;20035;-62
2022/06/16 01:34:52;;;;;;;9.23;2.88;;;17.00;99.90;;;;;;5080489;28;20043;-61
2022/06/16 01:37:18;;;;;;;;;;;16.90;99.90;;;;;;5082265;28;20401;-61
2022/06/16 01:40:11;;;;;;;9.63;2.90;;;16.90;99.90;;;;;;5085886;28;19908;-61
2022/06/16 01:43:18;;;;;;;7.17;2.80;;;17.00;99.90;;;;;;5088639;28;20534;-61
2022/06/16 01:45:56;;;;;;;8.05;3.03;;;16.90;99.90;;;;;;5077843;28;20278;-61
2022/06/16 01:48:23;;;;;;;9.10;2.95;;;16.80;99.90;;;;;;5083121;28;20664;-61
2022/06/16 01:50:55;;;;;;;10.05;2.97;;;17.00;99.90;;;;;;5073073;28;20028;-61
2022/06/16 01:53:51;;;;;;;5.60;2.78;;;16.80;99.90;;;;;;5081267;28;20027;-61
2022/06/16 01:56:40;;;;;;;8.57;2.70;;;16.80;99.90;;;;;;5084533;28;20019;-61
2022/06/16 01:59:14;;;;;;;6.32;2.63;;;16.60;99.90;;;;;;5081030;28;20024;-60
2022/06/16 02:01:44;;;;;;;5.57;2.65;;;16.60;99.90;;;;;;5083059;28;20024;-61
2022/06/16 02:04:28;;;;;;;5.68;2.80;;;16.70;99.90;;;;;;5085317;28;20388;-61
2022/06/16 02:06:56;;;;;;;6.75;2.75;;;16.90;99.90;;;;;;5081186;28;20046;-62
2022/06/16 02:09:29;;;;;;;11.10;2.88;;;16.70;99.90;;;;;;5092272;28;20462;-61
2022/06/16 02:11:59;;;;;;;5.78;2.22;;;16.70;99.90;;;;;;5085100;28;20045;-61
2022/06/16 02:14:42;;;;;;;7.45;2.45;;;16.60;99.90;;;;;;5090900;28;20123;-61
2022/06/16 02:17:09;;;;;;;7.37;2.80;;;16.70;99.90;;;;;;5078112;28;20024;-61
2022/06/16 02:19:36;;;;;;;7.05;2.47;;;16.70;99.90;;;;;;5087408;28;20051;-61
2022/06/16 02:22:02;;;;;;;5.00;2.55;;;16.60;99.90;;;;;;5082260;28;20415;-60
2022/06/16 02:24:30;;;;;;;4.38;2.75;;;16.60;99.90;;;;;;5078722;28;20089;-60
2022/06/16 02:26:59;;;;;;;11.57;2.70;;;16.40;99.90;;;;;;5075633;28;20074;-62
2022/06/16 02:29:39;;;;;;;7.00;2.55;;;16.60;99.90;;;;;;5079285;28;20353;-60
2022/06/16 02:32:38;;;;;;;7.57;2.63;;;16.60;99.90;;;;;;5076938;28;20476;-61
2022/06/16 02:35:11;;;;;;;7.90;2.55;;;16.60;99.90;;;;;;5074438;28;20020;-62
2022/06/16 02:37:55;;;;;;;7.68;2.80;;;16.40;99.90;;;;;;5085044;28;20760;-61
2022/06/16 02:40:39;;;;;;;7.35;2.83;;;16.20;99.90;;;;;;5078422;28;20020;-61
2022/06/16 02:43:13;;;;;;;;;;;16.10;99.90;;;;;;5085741;28;20842;-61
2022/06/16 02:46:02;;;;;;;5.57;2.80;;;16.20;99.90;;;;;;5080030;28;19911;-61
2022/06/16 02:48:56;;;;;;;5.90;2.40;;;16.10;99.90;;;;;;5080916;28;20388;-60
2022/06/16 02:51:40;;;;;;;5.18;2.35;;;16.30;99.90;;;;;;5076988;28;20107;-61
2022/06/16 02:54:21;;;;;;;5.75;2.70;;;16.30;99.90;;;;;;5073231;28;20685;-61
2022/06/16 02:57:12;;;;;;;7.78;2.70;;;16.00;99.90;;;;;;5084852;28;20055;-60
2022/06/16 03:00:18;;;;;;;5.88;2.92;;;15.80;99.90;;;;;;5080165;28;20502;-60
2022/06/16 03:02:44;;;;;;;6.22;2.90;;;15.70;99.90;;;;;;5060387;28;20831;-61
2022/06/16 03:05:13;;;;;;;7.13;2.70;;;15.80;99.90;;;;;;5084826;28;20149;-59
2022/06/16 03:07:39;;;;;;;5.88;2.80;;;15.80;99.90;;;;;;5080185;28;20056;-62
2022/06/16 03:10:06;;;;;;;5.63;2.67;;;16.00;99.90;;;;;;5079564;28;20055;-61
2022/06/16 03:12:32;;;;;;;5.18;2.72;;;16.20;99.90;;;;;;5080239;28;20320;-61
2022/06/16 03:14:58;;;;;;;6.80;2.85;;;16.00;99.90;;;;;;5080273;28;20085;-61
2022/06/16 03:17:24;;;;;;;6.18;2.95;;;15.70;99.90;;;;;;5080447;28;20441;-61
2022/06/16 03:19:50;;;;;;;8.45;2.88;;;15.60;99.90;;;;;;5079713;28;20027;-61
2022/06/16 03:22:18;;;;;;;10.45;3.38;;;15.60;99.90;;;;;;5081109;28;20035;-61
2022/06/16 03:24:44;;;;;;;9.43;2.90;;;15.70;99.90;;;;;;5079396;28;20036;-61
2022/06/16 03:27:11;;;;;;;8.68;2.90;;;15.50;99.90;;;;;;5086928;28;20027;-61
2022/06/16 03:29:37;;;;;;;8.50;3.10;;;15.50;99.90;;;;;;5079876;28;20589;-61
2022/06/16 03:32:04;;;;;;;5.90;2.72;;;15.80;99.90;;;;;;5082961;28;20036;-60
2022/06/16 03:34:30;;;;;;;6.95;2.65;;;15.70;99.90;;;;;;5078640;28;20028;-59
2022/06/16 03:36:56;;;;;;;7.00;2.67;;;15.60;99.90;;;;;;5089519;28;20028;-61
2022/06/16 03:39:22;;;;;;;5.25;3.00;;;15.60;99.90;;;;;;5085917;28;20615;-59
2022/06/16 03:41:48;;;;;;;6.05;3.05;;;15.30;99.90;;;;;;5083068;28;20020;-60
2022/06/16 03:44:13;;;;;;;7.60;3.15;;;15.40;99.90;;;;;;5084628;28;20716;-61
2022/06/16 03:46:39;;;;;;;6.18;2.78;;;15.50;99.90;;;;;;5083140;28;20036;-61
2022/06/16 03:49:05;;;;;;;4.97;2.78;;;15.50;99.90;;;;;;5082099;28;20465;-62
2022/06/16 03:51:31;;;;;;;5.05;2.97;;;15.30;99.90;;;;;;5073274;28;20042;-61
2022/06/16 03:53:57;;;;;;;6.32;2.90;;;15.20;99.90;;;;;;5084040;28;20415;-61
2022/06/16 03:56:22;;;;;;;8.32;3.25;;;15.20;99.90;;;;;;5088010;28;20024;-59
2022/06/16 03:58:52;;;;;;;10.13;3.42;;;15.00;99.90;;;;;;5073377;28;20029;-61
2022/06/16 04:01:19;;;;;;;6.93;3.42;;;15.40;99.90;;;;;;5083687;28;20024;-61
2022/06/16 04:04:00;;;;;;;7.75;3.15;;;15.40;99.90;;;;;;5079251;28;20471;-61
2022/06/16 04:06:31;;;;;;;5.88;3.25;;;15.50;99.90;;;;;;5077818;28;20739;-60
2022/06/16 04:08:57;;;;;;;6.90;3.33;;;15.40;99.90;;;;;;5076191;28;20043;-61
2022/06/16 04:11:28;;;;;;;6.57;3.22;;;15.30;99.90;;;;;;5079398;28;20024;-61
2022/06/16 04:14:08;;;;;;;4.57;3.30;;;15.30;99.90;;;;;;5072540;28;20870;-61
2022/06/16 04:16:37;;;;;;;6.07;3.30;;;15.50;99.90;;;;;;5079927;28;20024;-61
2022/06/16 04:19:03;;;;;;;5.25;3.22;;;15.60;99.90;;;;;;5075818;28;20031;-61
2022/06/16 04:21:29;;;;;;;6.47;3.30;;;15.80;99.90;;;;;;5078723;28;20032;-62
2022/06/16 04:23:55;;;;;;;7.63;3.42;;;15.70;99.90;;;;;;5084581;28;20698;-60
2022/06/16 04:26:21;;;;;;;7.15;3.40;;;15.60;99.90;;;;;;5084454;28;20103;-61
2022/06/16 04:28:48;;;;;;;7.10;3.38;;;15.70;99.90;;;;;;5080810;28;20024;-59
2022/06/16 04:31:13;;;;;;;6.25;3.38;;;15.70;99.90;;;;;;5078239;28;20020;-61
2022/06/16 04:33:39;;;;;;;5.38;3.08;;;16.00;99.90;;;;;;5083283;28;20020;-61
2022/06/16 04:36:05;;;;;;;5.28;3.30;;;16.20;99.90;;;;;;5077919;28;20383;-61
2022/06/16 04:38:31;;;;;;;9.35;3.47;;;16.00;99.90;;;;;;5079523;28;20028;-61
2022/06/16 04:40:58;;;;;;;7.00;3.35;;;16.10;99.90;;;;;;5088969;28;20103;-61
2022/06/16 04:43:25;;;;;;;6.82;3.42;;;16.20;99.90;;;;;;5081979;28;20032;-62
2022/06/16 04:45:50;;;;;;;6.00;3.30;;;16.10;99.90;;;;;;5082405;28;20067;-62
2022/06/16 04:48:16;;;;;;;10.13;3.58;;;16.00;99.90;;;;;;5080547;28;20119;-63
2022/06/16 04:50:42;;;;;;;7.80;3.50;;;16.30;99.90;;;;;;5071861;28;20085;-64
2022/06/16 04:53:07;;;;;;;8.88;3.50;;;16.20;99.90;;;;;;5067813;28;20464;-62
2022/06/16 04:55:34;;;;;;;7.65;3.75;;;15.80;99.90;;;;;;5073952;28;20020;-62
2022/06/16 04:58:02;;;;;;;7.70;3.70;;;15.70;99.90;;;;;;5078208;28;20052;-62
2022/06/16 05:00:27;;;;;;;8.25;3.83;;;15.70;99.90;;;;;;5080454;28;20112;-62
2022/06/16 05:02:53;;;;;;;6.13;3.55;;;15.80;99.90;;;;;;5076100;28;20036;-60
2022/06/16 05:05:18;;;;;;;5.40;3.88;;;15.70;99.90;;;;;;5075008;28;20028;-64
2022/06/16 05:07:44;;;;;;;7.10;3.65;;;16.00;99.90;;;;;;5079941;28;20548;-62
2022/06/16 05:10:11;;;;;;;6.63;3.38;;;15.90;99.90;;;;;;5086422;28;20020;-63
2022/06/16 05:12:37;;;;;;;8.55;3.60;;;16.00;99.90;;;;;;5074958;28;20032;-63
2022/06/16 05:15:04;;;;;;;6.70;3.30;;;16.10;99.90;;;;;;5079561;28;20020;-61
2022/06/16 05:17:30;;;;;;;7.93;3.42;;;16.00;99.90;;;;;;5077451;28;20054;-63
2022/06/16 05:19:55;;;;;;;7.82;3.53;;;16.00;99.90;;;;;;5077062;28;20028;-62
2022/06/16 05:22:21;;;;;;;4.57;3.40;;;16.00;99.90;;;;;;5079305;28;20450;-61
2022/06/16 05:24:46;;;;;;;7.50;3.22;;;16.10;99.90;;;;;;5075378;28;20032;-61
2022/06/16 05:27:13;;;;;;;6.47;3.10;;;16.10;99.90;;;;;;5083025;28;20036;-62
2022/06/16 05:29:38;;;;;;;6.30;3.13;;;16.10;99.90;;;;;;5086675;28;20063;-62
2022/06/16 05:32:04;;;;;;;6.97;3.30;;;16.20;99.90;;;;;;5076542;28;20074;-63
2022/06/16 05:34:30;;;;;;;5.30;2.90;;;16.40;99.90;;;;;;5082113;28;20024;-62
2022/06/16 05:36:56;;;;;;;6.43;3.00;;;16.20;99.90;;;;;;5077618;28;20154;-61
2022/06/16 05:39:21;;;;;;;6.72;2.90;;;16.20;99.90;;;;;;5088803;28;20068;-62
2022/06/16 05:41:47;;;;;;;6.25;2.88;;;16.50;99.90;;;;;;5074673;28;20531;-57
2022/06/16 05:44:13;;;;;;;6.85;3.10;;;16.90;99.90;;;;;;5076095;28;20526;-63
2022/06/16 05:46:40;;;;;;;7.15;3.00;;;16.40;99.90;;;;;;5076051;28;20653;-63
2022/06/16 05:49:06;;;;;;;7.00;3.22;;;16.50;99.90;;;;;;5079302;28;20376;-62
2022/06/16 05:51:31;;;;;;;4.90;2.58;;;16.60;99.90;;;;;;5083145;28;20027;-62
2022/06/16 05:53:57;;;;;;;8.88;2.70;;;16.80;99.90;;;;;;5076140;28;20020;-63
2022/06/16 05:56:22;;;;;;;3.88;2.40;;;16.90;99.90;;;;;;5077673;28;20017;-63
2022/06/16 05:58:48;;;;;;;6.60;2.90;;;16.60;99.90;;;;;;5079783;28;20032;-63
2022/06/16 06:01:14;;;;;;;6.50;2.85;;;16.70;99.90;;;;;;5079856;28;20028;-64
2022/06/16 06:03:42;;;;;;;7.32;3.20;;;16.70;99.90;;;;;;5075833;28;20142;-62
2022/06/16 06:06:08;;;;;;;8.23;3.00;;;16.80;99.90;;;;;;5076412;28;20021;-60
2022/06/16 06:17:05;;;;;;;7.78;3.17;;;17.00;99.90;;;;;;5081494;28;20156;-60
2022/06/16 06:19:31;;;;;;;7.45;2.90;;;16.90;99.90;;;;;;5073673;28;20036;-62
2022/06/16 06:22:13;;;;;;;7.15;2.92;;;17.10;99.90;;;;;;5073480;28;20017;-63
2022/06/16 06:24:47;;;;;;;6.75;2.83;;;17.10;99.90;;;;;;5081655;28;20028;-63
2022/06/16 06:27:21;;;;;;;7.95;2.90;;;17.20;99.90;;;;;;5082991;28;20503;-64
2022/06/16 06:29:49;;;;;;;5.95;2.72;;;17.40;99.90;;;;;;5068184;28;20157;-62
2022/06/16 06:32:16;;;;;;;7.63;3.30;;;17.70;99.90;;;;;;5080538;28;20089;-62
2022/06/16 06:34:42;;;;;;;7.90;3.13;;;17.60;99.90;;;;;;5078339;28;20119;-63
2022/06/16 06:37:10;;;;;;;7.40;3.10;;;17.50;99.90;;;;;;5075850;28;20214;-62
2022/06/16 06:39:35;;;;;;;7.35;3.00;;;17.40;99.90;;;;;;5082000;28;20036;-63
2022/06/16 06:42:04;;;;;;;8.45;2.63;;;17.60;99.90;;;;;;5081871;28;20187;-61
2022/06/16 06:44:31;;;;;;;6.30;2.65;;;17.70;99.90;;;;;;5073992;28;20031;-62
2022/06/16 06:46:57;;;;;;;8.77;2.50;;;17.60;99.90;;;;;;5073972;28;20036;-62
2022/06/16 06:49:23;;;;;;;10.90;2.97;;;17.50;99.90;;;;;;5080807;28;20036;-63
2022/06/16 06:51:48;;;;;;;6.93;3.10;;;17.50;99.90;;;;;;5067471;28;20518;-63
2022/06/16 06:54:14;;;;;;;9.20;2.50;;;17.60;99.90;;;;;;5080396;28;20019;-62
2022/06/16 06:56:40;;;;;;;7.15;2.50;;;17.70;99.90;;;;;;5077689;28;20043;-62
2022/06/16 06:59:09;;;;;;;8.23;2.47;;;17.60;99.90;;;;;;5078191;28;20028;-61
2022/06/16 07:01:35;;;;;;;8.07;2.63;;;17.60;99.90;;;;;;5071688;28;20387;-61
2022/06/16 07:04:02;;;;;;;7.93;1.98;;;17.80;99.90;;;;;;5076824;28;20057;-63
2022/06/16 07:06:28;;;;;;;8.32;2.38;;;18.10;99.90;;;;;;5075835;28;20067;-62
2022/06/16 07:08:54;;;;;;;5.60;2.13;;;18.00;99.90;;;;;;5069967;28;20575;-63
2022/06/16 07:11:20;;;;;;;7.90;2.60;;;18.20;99.90;;;;;;5073135;28;20020;-61
2022/06/16 07:13:45;;;;;;;6.93;2.60;;;18.50;99.90;;;;;;5079223;28;20038;-62
2022/06/16 07:16:12;;;;;;;7.68;2.42;;;18.10;99.90;;;;;;5079736;28;20020;-62
2022/06/16 07:18:37;;;;;;;6.97;2.40;;;18.30;99.90;;;;;;5072097;28;21147;-63
2022/06/16 07:21:04;;;;;;;9.57;2.63;;;18.40;99.90;;;;;;5076183;28;20511;-61
2022/06/16 07:23:29;;;;;;;7.25;2.20;;;18.30;99.90;;;;;;5073103;28;20505;-63
2022/06/16 07:25:55;;;;;;;7.07;2.30;;;18.40;99.90;;;;;;5076395;28;20058;-62
2022/06/16 07:28:22;;;;;;;5.75;2.25;;;18.50;99.90;;;;;;5073998;28;20068;-60
2022/06/16 07:30:48;;;;;;;7.68;2.05;;;18.30;99.90;;;;;;5077481;28;20043;-61
2022/06/16 07:33:13;;;;;;;6.40;2.10;;;18.60;99.90;;;;;;5078553;28;20028;-61
2022/06/16 07:35:43;;;;;;;6.65;2.10;;;18.50;99.90;;;;;;5072920;28;20020;-62
2022/06/16 07:38:09;;;;;;;4.18;1.90;;;18.70;99.90;;;;;;5070715;28;20032;-63
2022/06/16 07:40:35;;;;;;;6.53;2.15;;;18.60;99.90;;;;;;5075386;28;20040;-62
2022/06/16 07:43:00;;;;;;;4.68;2.05;;;18.70;99.90;;;;;;5077454;28;20028;-62
2022/06/16 07:45:28;;;;;;;6.85;2.30;;;18.80;99.90;;;;;;5075865;28;20040;-62
2022/06/16 07:47:57;;;;;;;9.00;2.20;;;19.00;99.90;;;;;;5077401;28;20035;-62
2022/06/16 07:50:23;;;;;;;5.45;2.45;;;19.10;99.90;;;;;;5074331;28;20029;-62
2022/06/16 07:52:49;;;;;;;7.28;2.25;;;19.20;99.90;;;;;;5077345;28;20539;-62
2022/06/16 07:55:14;;;;;;;5.43;2.13;;;19.10;99.90;;;;;;5074931;28;20016;-63
2022/06/16 07:57:45;;;;;;;4.60;2.20;;;19.20;99.90;;;;;;5083339;28;20016;-63
2022/06/16 08:00:15;;;;;;;5.53;2.22;;;19.20;99.90;;;;;;5068573;28;20120;-63
2022/06/16 08:02:40;;;;;;;4.60;1.92;;;19.30;99.90;;;;;;5079005;28;20130;-62
2022/06/16 08:05:07;;;;;;;4.75;2.10;;;19.30;99.90;;;;;;5071925;28;20103;-63
2022/06/16 08:07:33;;;;;;;4.75;2.05;;;19.40;99.90;;;;;;5075340;28;20028;-62
2022/06/16 08:09:59;;;;;;;5.20;1.85;;;19.40;99.90;;;;;;5075546;28;20031;-62
2022/06/16 08:12:26;;;;;;;6.32;2.20;;;19.40;99.90;;;;;;5080117;28;20024;-62
2022/06/16 08:14:52;;;;;;;3.30;1.65;;;19.40;99.90;;;;;;5070145;28;20471;-63
2022/06/16 08:17:24;;;;;;;4.40;1.90;;;19.40;99.90;;;;;;5075209;28;20035;-62
2022/06/16 08:19:50;;;;;;;3.40;2.07;;;19.40;99.90;;;;;;5077998;28;20112;-60
2022/06/16 08:22:16;;;;;;;6.35;2.20;;;19.20;99.90;;;;;;5078157;28;20028;-62
2022/06/16 08:24:42;;;;;;;4.18;2.17;;;19.20;99.90;;;;;;5067985;28;20029;-62
2022/06/16 08:27:09;;;;;;;4.18;2.15;;;19.40;99.90;;;;;;5075397;28;20043;-63
2022/06/16 08:29:37;;;;;;;6.05;1.77;;;19.40;99.90;;;;;;5079757;28;20074;-61
2022/06/16 08:32:03;;;;;;;4.18;1.70;;;19.50;99.90;;;;;;5077296;28;20520;-63
2022/06/16 08:34:29;;;;;;;4.63;2.00;;;19.50;99.90;;;;;;5085517;28;20020;-63
2022/06/16 08:36:54;;;;;;;4.28;1.77;;;19.50;99.90;;;;;;5083339;28;20497;-62
2022/06/16 08:39:20;;;;;;;4.28;1.67;;;19.60;99.90;;;;;;5077519;28;20757;-63
2022/06/16 08:41:52;;;;;;;4.53;1.67;;;19.70;99.90;;;;;;5074841;28;20031;-63
2022/06/16 08:44:24;;;;;;;2.97;1.65;;;20.00;99.90;;;;;;5084574;28;20063;-63
2022/06/16 08:47:02;;;;;;;6.15;1.50;;;20.10;99.90;;;;;;5089598;28;20491;-59
2022/06/16 08:50:04;;;;;;;5.00;1.85;;;19.70;99.90;;;;;;5076963;28;20080;-62
2022/06/16 08:52:59;;;;;;;3.53;1.58;;;19.90;99.90;;;;;;5085740;28;20383;-62
2022/06/16 08:55:46;;;;;;;3.13;1.10;;;20.00;99.90;;;;;;5082364;28;20032;-63
2022/06/16 08:58:34;;;;;;;3.65;1.20;;;20.20;99.90;;;;;;5084872;28;20039;-62
2022/06/16 09:01:12;;;;;;;2.35;1.20;;;20.40;99.90;;;;;;5081117;28;20039;-63
2022/06/16 09:03:47;;;;;;;2.47;1.20;;;20.50;99.90;;;;;;5088682;28;20112;-60
2022/06/16 09:06:25;;;;;;;4.68;1.50;;;20.50;99.90;;;;;;5085667;28;20050;-62
2022/06/16 09:08:53;;;;;;;5.00;1.10;;;20.30;99.90;;;;;;5074865;28;20139;-62
2022/06/16 09:12:01;;;;;;;3.47;1.33;;;20.30;99.90;;;;;;5088248;28;20051;-63
2022/06/16 09:15:11;;;;;;;3.65;1.13;;;20.50;99.90;;;;;;5087694;28;20031;-60
2022/06/16 09:17:58;;;;;;;2.58;1.05;;;20.50;99.90;;;;;;5056320;28;20055;-60
2022/06/16 09:20:31;;;;;;;3.58;1.02;;;20.50;99.90;;;;;;5084187;28;20171;-61
2022/06/16 09:23:48;;;;;;;3.65;1.15;;;20.50;99.90;;;;;;5085387;28;20049;-61
2022/06/16 09:26:40;;;;;;;2.72;1.10;;;20.70;99.90;;;;;;5085566;28;20032;-62
2022/06/16 09:29:31;;;;;;;3.13;1.23;;;20.50;99.90;;;;;;5071298;28;20028;-63
2022/06/16 09:32:13;;;;;;;2.88;1.27;;;20.60;99.90;;;;;;5087835;28;20266;-62
2022/06/16 09:34:51;;;;;;;3.53;1.02;;;20.60;99.90;;;;;;5085236;28;20036;-62
2022/06/16 09:37:23;;;;;;;3.25;1.10;;;20.70;99.90;;;;;;5088803;28;20095;-63
2022/06/16 09:40:02;;;;;;;3.72;1.20;;;20.50;99.90;;;;;;5087228;28;20119;-63
2022/06/16 09:42:36;;;;;;;4.88;1.10;;;20.80;99.90;;;;;;5090102;28;20091;-62
2022/06/16 09:45:02;;;;;;;3.03;1.13;;;;;;;;;;5089251;28;20327;-63
2022/06/16 09:47:33;;;;;;;2.58;1.08;;;21.10;99.90;;;;;;5088524;28;20110;-62
2022/06/16 09:50:28;;;;;;;5.18;1.05;;;20.90;99.90;;;;;;5079174;28;20118;-61
2022/06/16 09:53:19;;;;;;;4.55;1.42;;;21.10;99.90;;;;;;5081123;28;20554;-62
2022/06/16 09:55:54;;;;;;;3.75;1.30;;;21.10;99.90;;;;;;5086894;28;20012;-63
2022/06/16 09:58:37;;;;;;;2.75;1.10;;;21.10;99.90;;;;;;5084937;28;20463;-63
2022/06/16 10:01:14;;;;;;;4.68;1.30;;;21.10;99.90;;;;;;5076721;28;20036;-62
2022/06/16 10:03:48;;;;;;;4.18;1.30;;;21.30;99.90;;;;;;5089638;28;20295;-62
2022/06/16 10:06:33;;;;;;;5.53;1.15;;;21.20;99.90;;;;;;5080749;28;20066;-62
2022/06/16 10:09:25;;;;;;;3.20;1.20;;;21.10;99.90;;;;;;5090251;28;20032;-63
2022/06/16 10:12:18;;;;;;;4.68;1.20;;;21.10;99.90;;;;;;5079086;28;20402;-60
2022/06/16 10:15:07;;;;;;;2.80;1.23;;;21.10;99.90;;;;;;5080792;28;20020;-61
2022/06/16 10:17:34;;;;;;;2.58;1.30;;;21.30;99.90;;;;;;5082192;28;20028;-63
2022/06/16 10:20:00;;;;;;;2.92;1.08;;;21.20;99.90;;;;;;5086304;28;20020;-61
2022/06/16 10:22:29;;;;;;;5.28;1.48;;;21.40;99.90;;;;;;5078847;28;20042;-61
2022/06/16 10:25:26;;;;;;;2.50;1.48;;;21.30;99.90;;;;;;5080937;28;20028;-62
2022/06/16 10:27:59;;;;;;;17.27;11.82;;;21.50;99.90;;;;;;5084287;28;20039;-63
2022/06/16 10:30:38;;;;;;;;;;;21.40;99.90;;;;;;5090509;28;20143;-63
2022/06/16 10:33:12;;;;;;;3.35;1.50;;;21.20;99.90;;;;;;5082350;28;19962;-61
2022/06/16 10:35:43;;;;;;;2.90;1.30;;;21.40;99.90;;;;;;5073733;28;20020;-63
2022/06/16 10:38:10;;;;;;;4.22;1.60;;;21.60;99.90;;;;;;5086167;28;20383;-62
2022/06/16 10:40:42;;;;;;;2.38;1.30;;;21.50;99.90;;;;;;5085570;28;20162;-63
2022/06/16 10:43:12;;;;;;;4.10;1.40;;;21.60;99.90;;;;;;5082526;28;20028;-63
2022/06/16 10:45:39;;;;;;;2.45;1.27;;;21.70;99.90;;;;;;5073269;28;20023;-63
2022/06/16 10:48:10;;;;;;;2.40;1.45;;;21.60;99.90;;;;;;5079923;28;20104;-64
2022/06/16 10:50:43;;;;;;;4.80;1.70;;;21.90;99.90;;;;;;5084284;28;20366;-64
2022/06/16 10:53:28;;;;;;;4.03;1.27;;;21.80;99.90;;;;;;5082897;28;20019;-63
2022/06/16 10:56:06;;;;;;;3.25;1.10;;;21.90;99.90;;;;;;5072409;28;20024;-64
2022/06/16 10:58:42;;;;;;;4.90;1.55;;;22.00;99.90;;;;;;5084226;28;20031;-63
2022/06/16 11:01:30;;;;;;;3.05;1.52;;;22.10;99.90;;;;;;5082803;28;20047;-62
2022/06/16 11:04:16;;;;;;;3.50;1.60;;;22.20;99.90;;;;;;5086233;28;20050;-61
2022/06/16 11:06:47;;;;;;;4.38;2.00;;;22.20;99.90;;;;;;5067652;28;20515;-64
2022/06/16 11:09:18;;;;;;;3.13;1.73;;;21.70;99.90;;;;;;5075568;28;20506;-63
2022/06/16 11:11:52;;;;;;;3.92;1.60;;;21.80;99.90;;;;;;5084538;28;20077;-63
2022/06/16 11:14:39;;;;;;;4.60;1.40;;;22.20;99.90;;;;;;5073205;28;20020;-63
2022/06/16 11:17:21;;;;;;;5.72;1.60;;;22.40;99.90;;;;;;5071883;28;20643;-63
2022/06/16 11:20:01;;;;;;;4.70;1.50;;;22.50;99.90;;;;;;5075399;28;20051;-62
2022/06/16 11:22:34;;;;;;;3.97;1.60;;;22.70;99.90;;;;;;5087157;28;20172;-64
2022/06/16 11:25:30;;;;;;;4.05;1.60;;;22.60;99.90;;;;;;5088862;28;20027;-62
2022/06/16 11:28:12;;;;;;;3.40;1.67;;;22.30;99.90;;;;;;5087478;28;20103;-62
2022/06/16 11:30:43;;;;;;;6.55;1.75;;;22.50;99.90;;;;;;5077369;28;20509;-63
2022/06/16 11:36:13;;;;;;;3.90;1.65;;;22.50;99.90;;;;;;5081650;28;20031;-61
2022/06/16 11:39:04;;;;;;;2.80;1.58;;;22.30;99.90;;;;;;5093579;28;20039;-63
2022/06/16 11:41:32;;;;;;;4.88;1.88;;;22.50;99.90;;;;;;5087275;28;20032;-63
2022/06/16 11:44:25;;;;;;;4.30;1.40;;;22.70;99.90;;;;;;5092107;28;20479;-62
2022/06/16 11:47:32;;;;;;;3.85;1.73;;;22.50;99.90;;;;;;5072823;28;20391;-62
2022/06/16 11:50:08;;;;;;;3.65;1.73;;;22.50;99.90;;;;;;5083009;28;20185;-62
2022/06/16 11:53:09;;;;;;;4.30;1.85;;;22.70;99.90;;;;;;5087722;28;20055;-62
2022/06/16 11:56:01;;;;;;;3.15;1.75;;;22.60;99.90;;;;;;5077379;28;20039;-62
2022/06/16 11:58:52;;;;;;;5.00;1.60;;;22.60;99.90;;;;;;5081258;28;20032;-62
2022/06/16 12:01:28;;;;;;;3.72;1.67;;;22.70;99.90;;;;;;5084169;28;20630;-63
2022/06/16 12:04:19;;;;;;;5.68;1.50;;;22.70;99.90;;;;;;5086139;28;20027;-63
2022/06/16 12:07:00;;;;;;;4.75;1.83;;;22.80;99.90;;;;;;5079788;28;20851;-62
2022/06/16 12:09:37;;;;;;;4.18;1.50;;;22.80;99.90;;;;;;5082666;28;20062;-61
2022/06/16 12:12:06;;;;;;;3.78;1.63;;;22.70;99.90;;;;;;5089670;28;20510;-62
2022/06/16 12:14:32;;;;;;;5.25;1.63;;;22.80;99.90;;;;;;5085980;28;20067;-60
2022/06/16 12:17:12;;;;;;;4.03;1.60;;;22.60;99.90;;;;;;5087387;28;20055;-62
2022/06/16 12:19:54;;;;;;;4.10;1.77;;;22.60;99.90;;;;;;5072925;28;20395;-62
2022/06/16 12:22:40;;;;;;;10.13;7.82;;;22.60;99.90;;;;;;5088402;28;20020;-62
2022/06/16 12:25:38;;;;;;;4.72;2.03;;;22.50;99.90;;;;;;5085727;28;20161;-62
2022/06/16 12:28:54;;;;;;;3.85;1.75;;;22.70;99.90;;;;;;5085834;28;20028;-62
2022/06/16 12:31:29;;;;;;;3.65;1.67;;;22.60;99.90;;;;;;5073756;28;20118;-61
2022/06/16 12:34:24;;;;;;;4.47;1.80;;;22.70;99.90;;;;;;5083957;28;20020;-62
2022/06/16 12:36:56;;;;;;;2.97;1.60;;;22.60;99.90;;;;;;5073226;28;20024;-62
2022/06/16 12:39:35;;;;;;;4.20;1.70;;;22.90;99.90;;;;;;5072304;28;20024;-62
2022/06/16 12:42:14;;;;;;;4.72;1.63;;;22.80;99.90;;;;;;5084464;28;20085;-61
2022/06/16 12:44:57;;;;;;;4.43;1.70;;;22.90;99.90;;;;;;5089327;28;20062;-62
2022/06/16 12:47:28;;;;;;;5.15;1.95;;;23.00;99.90;;;;;;5084598;28;20054;-62
2022/06/16 12:50:02;;;;;;;4.28;1.73;;;23.10;99.90;;;;;;5081060;28;20028;-62
2022/06/16 12:52:41;;;;;;;4.28;1.90;;;;;;;;;;5081952;28;20068;-61
2022/06/16 12:55:14;;;;;;;5.32;2.05;;;23.40;99.90;;;;;;5086358;28;20101;-62
2022/06/16 12:57:45;;;;;;;;;;;23.20;99.90;;;;;;5090453;28;20023;-62
2022/06/16 13:00:17;;;;;;;5.80;1.55;;;23.00;99.90;;;;;;5086546;28;20006;-61
2022/06/16 13:02:50;;;;;;;5.88;1.75;;;23.10;99.90;;;;;;5075724;28;20043;-62
2022/06/16 13:05:18;;;;;;;4.80;1.60;;;23.00;99.90;;;;;;5079936;28;20017;-61
2022/06/16 13:07:49;;;;;;;7.28;1.60;;;23.00;99.90;;;;;;5081055;28;20400;-60
2022/06/16 13:10:15;;;;;;;3.70;1.58;;;23.00;99.90;;;;;;5087063;28;20589;-60
2022/06/16 13:12:47;;;;;;;3.88;1.65;;;23.10;99.90;;;;;;5084162;28;20032;-62
2022/06/16 13:15:21;;;;;;;4.38;1.70;;;23.20;99.90;;;;;;5089328;28;20016;-62
2022/06/16 13:17:56;;;;;;;2.85;1.58;;;23.20;99.90;;;;;;5089242;28;20020;-62
2022/06/16 13:20:27;;;;;;;4.00;1.70;;;23.10;99.90;;;;;;5081083;28;20116;-61
2022/06/16 13:22:57;;;;;;;3.00;1.67;;;23.40;99.90;;;;;;5090895;28;20076;-62
2022/06/16 13:25:56;;;;;;;4.00;1.70;;;23.20;99.90;;;;;;5085708;28;20020;-62
2022/06/16 13:28:31;;;;;;;4.28;1.85;;;23.40;99.90;;;;;;5070610;28;20039;-59
2022/06/16 13:31:28;;;;;;;4.13;1.70;;;23.60;99.90;;;;;;5076711;28;20071;-60
2022/06/16 13:33:53;;;;;;;5.85;1.40;;;23.50;99.90;;;;;;5089402;28;20028;-63
2022/06/16 13:36:30;;;;;;;4.72;1.50;;;23.20;99.90;;;;;;5080813;28;20502;-62
2022/06/16 13:38:56;;;;;;;6.53;1.63;;;23.10;99.90;;;;;;5084174;28;20034;-62